createdAt,value
2022-07-26T00:01:02.009Z,19.31
2022-07-26T00:03:30.125Z,19.35
2022-07-26T00:05:58.346Z,19.32
2022-07-26T00:08:26.336Z,19.32
2022-07-26T00:10:54.130Z,19.34
2022-07-26T00:13:23.435Z,19.33
2022-07-26T00:15:51.951Z,19.37
2022-07-26T00:18:20.402Z,19.35
2022-07-26T00:20:49.413Z,19.35
2022-07-26T00:23:19.406Z,19.30
2022-07-26T00:25:47.597Z,19.33
2022-07-26T00:28:15.493Z,19.28
2022-07-26T00:30:44.841Z,19.27
2022-07-26T00:33:12.898Z,19.26
2022-07-26T00:35:40.878Z,19.33
2022-07-26T00:38:09.526Z,19.31
2022-07-26T00:40:37.465Z,19.30
2022-07-26T00:43:05.404Z,19.46
2022-07-26T00:45:33.219Z,19.48
2022-07-26T00:48:02.443Z,19.52
2022-07-26T00:50:30.317Z,19.54
2022-07-26T00:52:58.227Z,19.53
2022-07-26T00:55:26.132Z,19.50
2022-07-26T00:57:54.005Z,19.54
2022-07-26T01:00:26.448Z,19.51
2022-07-26T01:02:54.593Z,19.40
2022-07-26T01:05:25.244Z,19.42
2022-07-26T01:07:54.302Z,19.51
2022-07-26T01:10:22.183Z,19.48
2022-07-26T01:12:50.018Z,19.41
2022-07-26T01:15:18.533Z,19.43
2022-07-26T01:17:47.404Z,19.34
2022-07-26T01:20:15.998Z,19.38
2022-07-26T01:22:45.262Z,19.39
2022-07-26T01:25:13.090Z,19.38
2022-07-26T01:27:41.120Z,19.31
2022-07-26T01:30:12.375Z,19.30
2022-07-26T01:32:40.445Z,19.28
2022-07-26T01:35:09.453Z,19.28
2022-07-26T01:37:37.393Z,19.40
2022-07-26T01:40:08.107Z,19.39
2022-07-26T01:42:40.687Z,19.39
2022-07-26T01:45:09.186Z,19.37
2022-07-26T01:47:37.104Z,19.37
2022-07-26T01:50:06.430Z,19.32
2022-07-26T01:52:36.593Z,19.61
2022-07-26T01:55:06.332Z,19.76
2022-07-26T01:57:34.490Z,19.90
2022-07-26T02:00:02.590Z,20.10
2022-07-26T02:02:35.128Z,19.88
2022-07-26T02:05:03.744Z,19.93
2022-07-26T02:07:34.198Z,20.12
2022-07-26T02:10:02.073Z,20.35
2022-07-26T02:12:31.374Z,20.27
2022-07-26T02:14:59.734Z,20.30
2022-07-26T02:17:27.752Z,20.10
2022-07-26T02:19:55.570Z,20.12
2022-07-26T02:22:23.608Z,20.02
2022-07-26T02:24:52.180Z,20.14
2022-07-26T02:27:21.656Z,20.30
2022-07-26T02:29:50.867Z,20.07
2022-07-26T02:32:18.929Z,20.05
2022-07-26T02:34:46.744Z,20.13
2022-07-26T02:37:14.521Z,20.10
2022-07-26T02:39:42.363Z,19.93
2022-07-26T02:42:10.152Z,19.90
2022-07-26T02:44:38.003Z,19.89
2022-07-26T02:47:07.300Z,19.92
2022-07-26T02:49:35.081Z,19.89
2022-07-26T02:52:02.972Z,19.81
2022-07-26T02:54:30.830Z,19.88
2022-07-26T02:56:58.614Z,19.97
2022-07-26T02:59:26.381Z,19.93
2022-07-26T03:01:54.344Z,19.93
2022-07-26T03:04:23.788Z,19.97
2022-07-26T03:06:51.881Z,20.16
2022-07-26T03:09:19.779Z,20.04
2022-07-26T03:11:47.643Z,20.19
2022-07-26T03:14:15.551Z,20.21
2022-07-26T03:16:43.317Z,20.08
2022-07-26T03:19:11.294Z,20.00
2022-07-26T03:21:40.555Z,19.99
2022-07-26T03:24:08.817Z,19.83
2022-07-26T03:26:37.283Z,20.03
2022-07-26T03:29:05.072Z,20.07
2022-07-26T03:31:32.866Z,20.14
2022-07-26T03:34:03.930Z,19.98
2022-07-26T03:36:31.779Z,19.91
2022-07-26T03:39:01.135Z,19.90
2022-07-26T03:41:31.567Z,19.97
2022-07-26T03:43:59.403Z,19.78
2022-07-26T03:46:27.698Z,19.78
2022-07-26T03:48:55.704Z,19.73
2022-07-26T03:51:23.749Z,19.72
2022-07-26T03:53:51.594Z,19.75
2022-07-26T03:56:28.878Z,19.66
2022-07-26T03:58:57.017Z,19.57
2022-07-26T04:01:24.952Z,19.62
2022-07-26T04:03:52.872Z,19.76
2022-07-26T04:06:22.530Z,19.84
2022-07-26T04:08:51.168Z,19.97
2022-07-26T04:11:20.727Z,19.89
2022-07-26T04:13:48.616Z,19.91
2022-07-26T04:16:16.437Z,19.87
2022-07-26T04:18:44.420Z,19.86
2022-07-26T04:21:12.221Z,19.75
2022-07-26T04:23:40.107Z,19.86
2022-07-26T04:26:08.085Z,19.79
2022-07-26T04:28:37.368Z,19.94
2022-07-26T04:31:05.296Z,20.24
2022-07-26T04:33:34.098Z,20.12
2022-07-26T04:36:03.291Z,19.84
2022-07-26T04:38:31.215Z,19.91
2022-07-26T04:40:59.176Z,20.15
2022-07-26T04:43:27.196Z,19.97
2022-07-26T04:45:57.559Z,19.90
2022-07-26T04:48:25.984Z,19.90
2022-07-26T04:50:54.260Z,20.14
2022-07-26T04:53:22.248Z,20.35
2022-07-26T04:55:50.144Z,20.48
2022-07-26T04:58:19.241Z,20.36
2022-07-26T05:01:08.963Z,20.45
2022-07-26T05:03:37.333Z,20.07
2022-07-26T05:06:05.511Z,20.15
2022-07-26T05:08:33.424Z,20.29
2022-07-26T05:11:01.240Z,20.16
2022-07-26T05:13:30.670Z,20.13
2022-07-26T05:15:59.117Z,20.02
2022-07-26T05:18:27.517Z,19.91
2022-07-26T05:20:59.686Z,19.96
2022-07-26T05:23:27.556Z,19.92
2022-07-26T05:25:55.471Z,20.05
2022-07-26T05:28:23.276Z,20.12
2022-07-26T05:30:51.398Z,19.92
2022-07-26T05:33:19.330Z,19.88
2022-07-26T05:35:47.279Z,19.92
2022-07-26T05:38:16.769Z,20.10
2022-07-26T05:40:48.657Z,19.97
2022-07-26T05:43:18.418Z,20.10
2022-07-26T05:45:46.339Z,20.01
2022-07-26T05:48:14.160Z,19.94
2022-07-26T05:50:42.015Z,20.00
2022-07-26T05:53:10.472Z,19.98
2022-07-26T05:55:39.901Z,19.86
2022-07-26T05:58:07.753Z,19.76
2022-07-26T06:00:35.884Z,19.77
2022-07-26T06:03:21.910Z,19.75
2022-07-26T06:05:50.246Z,19.69
2022-07-26T06:08:19.662Z,19.84
2022-07-26T06:10:49.650Z,20.13
2022-07-26T06:13:18.009Z,19.99
2022-07-26T06:15:46.373Z,20.09
2022-07-26T06:18:14.947Z,20.15
2022-07-26T06:20:44.444Z,20.43
2022-07-26T06:23:13.435Z,20.46
2022-07-26T06:25:41.487Z,20.60
2022-07-26T06:28:12.167Z,20.57
2022-07-26T06:30:41.028Z,20.37
2022-07-26T06:33:09.566Z,20.57
2022-07-26T06:35:38.790Z,20.71
2022-07-26T06:38:07.607Z,20.32
2022-07-26T06:40:36.537Z,20.41
2022-07-26T06:43:04.991Z,20.50
2022-07-26T06:45:34.826Z,20.55
2022-07-26T06:48:02.757Z,20.61
2022-07-26T06:50:30.873Z,20.33
2022-07-26T06:52:58.860Z,20.17
2022-07-26T06:55:26.735Z,19.75
2022-07-26T06:57:54.574Z,19.50
2022-07-26T07:00:23.711Z,19.37
2022-07-26T07:02:52.933Z,19.34
2022-07-26T07:05:20.965Z,19.29
2022-07-26T07:07:49.117Z,19.43
2022-07-26T07:10:17.016Z,19.70
2022-07-26T07:12:47.159Z,19.66
2022-07-26T07:15:14.973Z,19.56
2022-07-26T07:17:42.903Z,19.66
2022-07-26T07:20:13.379Z,19.25
2022-07-26T07:22:41.217Z,18.87
2022-07-26T07:25:09.434Z,18.34
2022-07-26T07:27:37.375Z,18.32
2022-07-26T07:30:06.310Z,18.05
2022-07-26T07:32:35.692Z,17.92
2022-07-26T07:35:03.828Z,17.60
2022-07-26T07:37:53.762Z,17.68
2022-07-26T07:40:22.811Z,17.69
2022-07-26T07:42:50.806Z,17.78
2022-07-26T07:45:18.860Z,17.83
2022-07-26T07:47:46.810Z,18.44
2022-07-26T07:50:14.717Z,18.88
2022-07-26T07:52:44.033Z,18.48
2022-07-26T07:55:37.716Z,18.80
2022-07-26T07:58:00.764Z,18.77
2022-07-26T08:00:28.752Z,18.71
2022-07-26T08:02:56.569Z,18.67
2022-07-26T08:05:24.433Z,18.57
2022-07-26T08:07:54.187Z,18.45
2022-07-26T08:10:22.576Z,18.57
2022-07-26T08:12:51.451Z,18.44
2022-07-26T08:15:21.319Z,18.49
2022-07-26T08:17:54.559Z,18.65
2022-07-26T08:20:23.457Z,18.67
2022-07-26T08:22:51.725Z,18.53
2022-07-26T08:25:21.253Z,18.58
2022-07-26T08:28:03.130Z,18.51
2022-07-26T08:30:31.850Z,18.38
2022-07-26T08:32:59.953Z,18.15
2022-07-26T08:35:29.507Z,17.90
2022-07-26T08:37:57.768Z,17.83
2022-07-26T08:40:27.131Z,18.41
2022-07-26T08:42:57.470Z,18.53
2022-07-26T08:45:26.661Z,18.59
2022-07-26T08:48:16.745Z,18.67
2022-07-26T08:50:43.118Z,18.58
2022-07-26T08:53:12.936Z,18.70
2022-07-26T08:56:05.867Z,18.90
2022-07-26T08:58:30.087Z,18.98
2022-07-26T09:01:06.178Z,19.02
2022-07-26T09:03:37.752Z,18.94
2022-07-26T09:06:17.993Z,19.20
2022-07-26T09:08:47.246Z,19.35
2022-07-26T09:11:31.306Z,19.14
2022-07-26T09:14:01.517Z,18.67
2022-07-26T09:16:30.379Z,18.68
2022-07-26T09:19:19.272Z,19.13
2022-07-26T09:21:47.492Z,19.60
2022-07-26T09:24:31.471Z,19.66
2022-07-26T09:27:02.918Z,19.86
2022-07-26T09:29:32.294Z,19.90
2022-07-26T09:32:19.546Z,19.83
2022-07-26T09:34:52.908Z,19.90
2022-07-26T09:37:35.766Z,19.93
2022-07-26T09:40:06.306Z,19.96
2022-07-26T09:42:36.145Z,20.22
2022-07-26T09:45:05.183Z,20.28
2022-07-26T09:47:40.654Z,20.45
2022-07-26T09:50:14.169Z,20.48
2022-07-26T09:52:42.219Z,20.31
2022-07-26T09:55:13.147Z,20.74
2022-07-26T09:57:42.427Z,20.93
2022-07-26T10:00:14.575Z,20.98
2022-07-26T10:02:42.577Z,21.44
2022-07-26T10:05:11.189Z,21.44
2022-07-26T10:07:39.606Z,21.36
2022-07-26T10:10:11.668Z,21.76
2022-07-26T10:12:39.823Z,21.68
2022-07-26T10:15:40.264Z,22.36
2022-07-26T10:18:09.748Z,22.43
2022-07-26T10:20:47.261Z,22.62
2022-07-26T10:23:35.161Z,22.99
2022-07-26T10:26:04.657Z,23.31
2022-07-26T10:28:35.442Z,23.20
2022-07-26T10:31:30.911Z,22.66
2022-07-26T10:34:00.771Z,22.78
2022-07-26T10:36:34.646Z,23.50
2022-07-26T10:39:11.716Z,23.70
2022-07-26T10:41:45.584Z,23.78
2022-07-26T10:44:26.013Z,23.45
2022-07-26T10:47:12.251Z,23.06
2022-07-26T10:49:42.209Z,23.20
2022-07-26T10:52:12.969Z,22.74
2022-07-26T10:55:07.113Z,22.64
2022-07-26T10:57:36.357Z,23.05
2022-07-26T11:00:10.552Z,23.05
2022-07-26T11:02:40.532Z,22.78
2022-07-26T11:05:14.232Z,23.09
2022-07-26T11:08:01.473Z,23.22
2022-07-26T11:10:31.490Z,23.05
2022-07-26T11:13:05.494Z,23.75
2022-07-26T11:15:34.283Z,23.79
2022-07-26T11:18:24.989Z,23.64
2022-07-26T11:20:55.168Z,23.69
2022-07-26T11:23:36.528Z,24.31
2022-07-26T11:26:13.420Z,24.39
2022-07-26T11:28:54.223Z,24.45
2022-07-26T11:31:49.507Z,24.43
2022-07-26T11:34:19.744Z,23.93
2022-07-26T11:36:48.563Z,24.13
2022-07-26T11:39:21.410Z,24.26
2022-07-26T11:41:50.393Z,25.18
2022-07-26T11:44:19.706Z,25.13
2022-07-26T11:46:48.543Z,25.58
2022-07-26T11:49:20.057Z,25.40
2022-07-26T11:51:52.834Z,24.86
2022-07-26T11:54:21.290Z,24.29
2022-07-26T11:56:54.192Z,24.03
2022-07-26T11:59:23.463Z,24.26
2022-07-26T12:01:51.945Z,24.36
2022-07-26T12:04:23.180Z,24.05
2022-07-26T12:06:51.518Z,23.64
2022-07-26T12:09:35.250Z,23.34
2022-07-26T12:12:05.657Z,23.05
2022-07-26T12:14:35.546Z,23.12
2022-07-26T12:17:14.732Z,23.29
2022-07-26T12:19:44.958Z,23.23
2022-07-26T12:22:14.629Z,23.01
2022-07-26T12:24:45.908Z,22.88
2022-07-26T12:27:17.278Z,23.10
2022-07-26T12:29:46.797Z,23.18
2022-07-26T12:32:16.903Z,23.61
2022-07-26T12:34:58.776Z,23.42
2022-07-26T12:37:39.310Z,23.66
2022-07-26T12:40:11.017Z,23.64
2022-07-26T12:42:40.666Z,23.54
2022-07-26T12:45:11.374Z,23.63
2022-07-26T12:47:40.702Z,23.39
2022-07-26T12:50:12.041Z,23.63
2022-07-26T12:52:40.526Z,23.43
2022-07-26T12:55:11.668Z,23.40
2022-07-26T12:57:45.913Z,23.58
2022-07-26T13:00:18.462Z,23.52
2022-07-26T13:02:46.689Z,23.48
2022-07-26T13:05:16.654Z,23.48
2022-07-26T13:07:44.627Z,23.47
2022-07-26T13:10:32.669Z,23.61
2022-07-26T13:13:01.188Z,23.79
2022-07-26T13:15:36.494Z,23.77
2022-07-26T13:18:08.053Z,23.29
2022-07-26T13:20:38.582Z,23.16
2022-07-26T13:23:09.695Z,23.24
2022-07-26T13:25:40.507Z,23.27
2022-07-26T13:28:09.353Z,23.24
2022-07-26T13:30:38.584Z,23.26
2022-07-26T13:33:06.505Z,23.13
2022-07-26T13:35:34.478Z,23.27
2022-07-26T13:38:03.799Z,23.18
2022-07-26T13:40:32.192Z,23.40
2022-07-26T13:43:00.529Z,23.28
2022-07-26T13:45:29.418Z,23.35
2022-07-26T13:47:57.564Z,23.72
2022-07-26T13:50:28.537Z,23.46
2022-07-26T13:52:56.730Z,24.08
2022-07-26T13:55:26.656Z,24.22
2022-07-26T13:57:56.792Z,24.12
2022-07-26T14:00:25.432Z,24.14
2022-07-26T14:02:53.560Z,24.20
2022-07-26T14:05:21.773Z,23.95
2022-07-26T14:07:49.867Z,23.52
2022-07-26T14:10:17.715Z,22.98
2022-07-26T14:12:48.967Z,23.04
2022-07-26T14:15:21.989Z,23.08
2022-07-26T14:17:50.491Z,23.18
2022-07-26T14:20:18.379Z,23.29
2022-07-26T14:22:46.287Z,23.39
2022-07-26T14:25:14.677Z,23.34
2022-07-26T14:27:42.545Z,23.56
2022-07-26T14:30:13.244Z,24.02
2022-07-26T14:32:41.379Z,24.18
2022-07-26T14:35:10.226Z,23.63
2022-07-26T14:37:42.678Z,23.47
2022-07-26T14:40:13.797Z,23.62
2022-07-26T14:42:41.716Z,23.54
2022-07-26T14:45:12.595Z,23.55
2022-07-26T14:47:40.948Z,23.83
2022-07-26T14:50:10.300Z,23.88
2022-07-26T14:52:39.551Z,23.76
2022-07-26T14:55:08.936Z,23.70
2022-07-26T14:57:39.307Z,23.30
2022-07-26T15:00:09.687Z,23.38
2022-07-26T15:02:41.607Z,23.30
2022-07-26T15:05:10.805Z,23.43
2022-07-26T15:07:38.790Z,23.74
2022-07-26T15:10:08.190Z,24.24
2022-07-26T15:12:36.407Z,24.60
2022-07-26T15:15:04.829Z,24.74
2022-07-26T15:17:33.138Z,24.94
2022-07-26T15:20:03.079Z,25.18
2022-07-26T15:22:31.155Z,24.91
2022-07-26T15:24:59.148Z,24.94
2022-07-26T15:27:27.189Z,25.36
2022-07-26T15:29:59.568Z,25.89
2022-07-26T15:32:31.361Z,26.14
2022-07-26T15:35:00.403Z,25.79
2022-07-26T15:37:30.077Z,25.90
2022-07-26T15:39:58.249Z,26.21
2022-07-26T15:42:26.119Z,26.13
2022-07-26T15:44:54.142Z,25.41
2022-07-26T15:47:52.448Z,25.11
2022-07-26T15:50:15.013Z,25.41
2022-07-26T15:52:46.152Z,25.21
2022-07-26T15:55:16.702Z,25.63
2022-07-26T15:57:45.248Z,25.91
2022-07-26T16:00:15.842Z,26.28
2022-07-26T16:02:43.768Z,26.29
2022-07-26T16:05:12.757Z,26.14
2022-07-26T16:07:42.318Z,26.04
2022-07-26T16:10:13.700Z,26.04
2022-07-26T16:12:42.876Z,26.21
2022-07-26T16:15:12.161Z,26.21
2022-07-26T16:17:40.437Z,26.67
2022-07-26T16:20:09.084Z,26.44
2022-07-26T16:22:40.768Z,26.00
2022-07-26T16:25:13.163Z,25.42
2022-07-26T16:27:42.278Z,25.26
2022-07-26T16:30:11.606Z,25.09
2022-07-26T16:32:39.823Z,24.93
2022-07-26T16:35:08.370Z,24.82
2022-07-26T16:37:36.384Z,24.54
2022-07-26T16:40:05.209Z,24.40
2022-07-26T16:42:34.461Z,24.48
2022-07-26T16:45:02.390Z,24.30
2022-07-26T16:47:30.367Z,24.27
2022-07-26T16:49:58.392Z,24.26
2022-07-26T16:52:27.326Z,24.01
2022-07-26T16:54:55.444Z,24.01
2022-07-26T16:57:23.422Z,23.78
2022-07-26T16:59:52.677Z,23.63
2022-07-26T17:02:20.675Z,23.54
2022-07-26T17:04:48.725Z,23.63
2022-07-26T17:07:25.407Z,23.51
2022-07-26T17:09:54.158Z,23.63
2022-07-26T17:12:22.243Z,23.55
2022-07-26T17:14:50.174Z,23.53
2022-07-26T17:17:19.392Z,23.46
2022-07-26T17:19:47.255Z,23.45
2022-07-26T17:22:15.169Z,23.47
2022-07-26T17:24:43.257Z,23.26
2022-07-26T17:27:11.411Z,23.25
2022-07-26T17:29:39.314Z,23.09
2022-07-26T17:32:08.696Z,23.05
2022-07-26T17:34:38.153Z,23.09
2022-07-26T17:37:10.211Z,23.02
2022-07-26T17:39:53.554Z,22.90
2022-07-26T17:42:22.421Z,23.04
2022-07-26T17:44:50.952Z,22.90
2022-07-26T17:47:28.871Z,22.77
2022-07-26T17:50:26.157Z,22.76
2022-07-26T17:52:49.145Z,22.78
2022-07-26T17:55:18.376Z,22.76
2022-07-26T17:57:46.626Z,22.71
2022-07-26T18:00:16.006Z,22.51
2022-07-26T18:02:43.968Z,22.40
2022-07-26T18:05:13.734Z,22.32
2022-07-26T18:07:41.965Z,22.21
2022-07-26T18:10:11.662Z,22.25
2022-07-26T18:12:40.657Z,22.16
2022-07-26T18:15:09.423Z,22.18
2022-07-26T18:17:37.524Z,22.06
2022-07-26T18:20:06.524Z,21.97
2022-07-26T18:22:35.783Z,22.05
2022-07-26T18:25:03.907Z,22.15
2022-07-26T18:27:31.967Z,22.26
2022-07-26T18:30:00.543Z,22.18
2022-07-26T18:32:28.556Z,22.18
2022-07-26T18:34:59.151Z,22.26
2022-07-26T18:37:27.049Z,22.15
2022-07-26T18:39:58.090Z,22.08
2022-07-26T18:42:27.815Z,22.09
2022-07-26T18:44:55.877Z,22.38
2022-07-26T18:47:23.966Z,22.24
2022-07-26T18:49:51.961Z,22.07
2022-07-26T18:52:28.709Z,22.04
2022-07-26T18:55:06.638Z,22.00
2022-07-26T18:57:35.408Z,21.98
2022-07-26T19:00:12.297Z,21.83
2022-07-26T19:02:40.176Z,21.83
2022-07-26T19:05:10.591Z,21.79
2022-07-26T19:07:38.621Z,21.81
2022-07-26T19:10:10.055Z,21.82
2022-07-26T19:12:41.367Z,21.88
2022-07-26T19:15:10.258Z,21.83
2022-07-26T19:17:38.909Z,21.70
2022-07-26T19:20:13.720Z,21.66
2022-07-26T19:22:44.051Z,21.67
2022-07-26T19:25:14.732Z,21.59
2022-07-26T19:27:46.172Z,21.63
2022-07-26T19:30:15.981Z,21.57
2022-07-26T19:32:46.753Z,21.68
2022-07-26T19:35:14.590Z,21.52
2022-07-26T19:37:43.631Z,21.26
2022-07-26T19:40:14.445Z,21.32
2022-07-26T19:42:44.122Z,21.09
2022-07-26T19:45:12.557Z,21.04
2022-07-26T19:47:40.684Z,20.45
2022-07-26T19:50:16.634Z,20.54
2022-07-26T19:52:44.761Z,20.61
2022-07-26T19:55:15.945Z,20.71
2022-07-26T19:57:45.584Z,20.75
2022-07-26T20:00:19.722Z,20.70
2022-07-26T20:02:47.658Z,20.68
2022-07-26T20:05:15.869Z,19.75
2022-07-26T20:07:49.196Z,19.86
2022-07-26T20:10:21.389Z,20.06
2022-07-26T20:12:51.541Z,19.97
2022-07-26T20:15:22.407Z,19.63
2022-07-26T20:17:53.249Z,19.45
2022-07-26T20:20:26.781Z,19.77
2022-07-26T20:22:56.362Z,19.94
2022-07-26T20:25:26.083Z,20.16
2022-07-26T20:27:54.368Z,20.10
2022-07-26T20:30:22.597Z,20.07
2022-07-26T20:32:53.471Z,20.30
2022-07-26T20:35:23.711Z,20.28
2022-07-26T20:37:52.105Z,20.31
2022-07-26T20:40:20.180Z,20.30
2022-07-26T20:42:52.935Z,20.27
2022-07-26T20:45:20.957Z,20.00
2022-07-26T20:47:49.165Z,19.77
2022-07-26T20:50:17.177Z,19.72
2022-07-26T20:52:47.323Z,19.48
2022-07-26T20:55:16.095Z,19.57
2022-07-26T20:57:44.163Z,19.65
2022-07-26T21:00:20.585Z,19.65
2022-07-26T21:02:50.677Z,19.77
2022-07-26T21:05:27.803Z,19.98
2022-07-26T21:08:00.097Z,19.88
2022-07-26T21:10:32.344Z,19.88
2022-07-26T21:13:01.259Z,20.03
2022-07-26T21:15:34.260Z,19.91
2022-07-26T21:18:05.467Z,19.96
2022-07-26T21:20:33.636Z,20.03
2022-07-26T21:23:17.371Z,19.95
2022-07-26T21:25:46.979Z,20.00
2022-07-26T21:28:14.945Z,20.19
2022-07-26T21:30:44.195Z,20.25
2022-07-26T21:33:12.120Z,20.08
2022-07-26T21:35:41.005Z,20.01
2022-07-26T21:38:10.020Z,20.02
2022-07-26T21:40:40.958Z,20.08
2022-07-26T21:43:11.725Z,19.96
2022-07-26T21:45:41.754Z,19.92
2022-07-26T21:48:11.026Z,19.99
2022-07-26T21:50:38.963Z,19.93
2022-07-26T21:53:06.956Z,19.96
2022-07-26T21:55:37.801Z,19.98
2022-07-26T21:58:05.897Z,20.15
2022-07-26T22:00:34.614Z,20.07
2022-07-26T22:03:02.476Z,20.05
2022-07-26T22:05:38.993Z,19.96
2022-07-26T22:08:07.864Z,20.01
2022-07-26T22:10:44.007Z,19.93
2022-07-26T22:13:13.868Z,19.89
2022-07-26T22:15:42.873Z,19.95
2022-07-26T22:18:14.089Z,19.90
2022-07-26T22:20:44.102Z,19.80
2022-07-26T22:23:13.678Z,19.87
2022-07-26T22:25:41.599Z,19.89
2022-07-26T22:28:11.111Z,19.89
2022-07-26T22:30:39.630Z,19.84
2022-07-26T22:33:10.137Z,19.87
2022-07-26T22:35:38.071Z,19.79
2022-07-26T22:38:09.433Z,19.71
2022-07-26T22:40:38.006Z,19.90
2022-07-26T22:43:06.822Z,19.82
2022-07-26T22:45:34.817Z,19.97
2022-07-26T22:48:03.947Z,19.99
2022-07-26T22:50:32.370Z,20.05
2022-07-26T22:53:02.096Z,20.16
2022-07-26T22:55:32.350Z,20.06
2022-07-26T22:58:01.905Z,20.05
2022-07-26T23:00:30.303Z,19.97
2022-07-26T23:02:58.122Z,19.87
2022-07-26T23:05:36.052Z,19.83
2022-07-26T23:08:44.250Z,19.77
2022-07-26T23:11:03.342Z,19.67
2022-07-26T23:13:32.415Z,19.58
2022-07-26T23:16:01.638Z,19.66
2022-07-26T23:18:31.174Z,19.65
2022-07-26T23:20:59.112Z,19.81
2022-07-26T23:23:29.198Z,19.84
2022-07-26T23:25:58.958Z,19.90
2022-07-26T23:28:37.329Z,20.04
2022-07-26T23:31:07.889Z,19.98
2022-07-26T23:33:50.558Z,19.96
2022-07-26T23:36:21.685Z,19.93
2022-07-26T23:38:49.498Z,19.93
2022-07-26T23:41:17.312Z,19.80
2022-07-26T23:43:46.533Z,19.61
2022-07-26T23:46:14.457Z,19.49
2022-07-26T23:48:42.450Z,19.38
2022-07-26T23:51:10.603Z,19.49
2022-07-26T23:53:38.511Z,19.50
2022-07-26T23:56:06.754Z,19.61
2022-07-26T23:58:34.674Z,19.57
